Time,TemperatureF,DewpointF,PressureIn,WindDirection,WindDirectionDegrees,WindSpeedMPH,WindSpeedGustMPH,Humidity,HourlyPrecipIn,Conditions,Clouds,dailyrainin,SoftwareType,DateUTC
2013-04-23 00:01:00,42.3,24.0,30.31,WNW,283,0.0,0.0,48,0.00,,OVC060,0.00,VWS V13.01,2013-04-23 04:01:00,
2013-04-23 00:06:00,41.5,23.3,30.31,WNW,283,0.0,0.0,48,0.00,,OVC060,0.00,VWS V13.01,2013-04-23 04:06:00,
2013-04-23 00:11:00,41.0,22.8,30.31,WNW,283,0.0,0.0,48,0.00,,OVC060,0.00,VWS V13.01,2013-04-23 04:11:00,
2013-04-23 00:16:00,40.5,22.8,30.31,WNW,283,0.0,0.0,49,0.00,,BKN060,0.00,VWS V13.01,2013-04-23 04:16:00,
2013-04-23 00:21:00,40.1,22.5,30.31,WNW,283,0.0,0.0,49,0.00,,BKN060,0.00,VWS V13.01,2013-04-23 04:21:00,
2013-04-23 00:26:00,39.7,22.2,30.31,WNW,283,0.0,0.0,49,0.00,,BKN060,0.00,VWS V13.01,2013-04-23 04:26:00,
2013-04-23 00:31:00,39.2,21.7,30.31,WNW,283,0.0,0.0,49,0.00,,BKN060,0.00,VWS V13.01,2013-04-23 04:31:00,
2013-04-23 00:36:00,38.8,21.8,30.31,WNW,283,0.0,0.0,50,0.00,,BKN050,0.00,VWS V13.01,2013-04-23 04:36:00,
2013-04-23 00:41:00,38.7,21.6,30.31,WNW,283,0.0,0.0,50,0.00,,BKN050,0.00,VWS V13.01,2013-04-23 04:41:00,
2013-04-23 00:46:00,39.0,23.4,30.31,West,265,0.0,0.0,53,0.00,,BKN050,0.00,VWS V13.01,2013-04-23 04:46:00,
2013-04-23 00:51:00,39.0,22.4,30.31,West,265,0.0,0.0,51,0.00,,BKN050,0.00,VWS V13.01,2013-04-23 04:51:00,
2013-04-23 00:56:00,39.4,23.2,30.31,WNW,286,3.9,3.9,52,0.00,,OVC050,0.00,VWS V13.01,2013-04-23 04:56:00,
2013-04-23 01:01:00,39.9,23.7,30.31,West,276,0.0,2.8,52,0.00,,OVC050,0.00,VWS V13.01,2013-04-23 05:01:00,
2013-04-23 01:06:00,40.3,24.1,30.31,West,277,0.0,0.0,52,0.00,,OVC050,0.00,VWS V13.01,2013-04-23 05:06:00,
2013-04-23 01:11:00,40.5,24.2,30.31,WNW,287,0.0,0.0,52,0.00,,OVC050,0.00,VWS V13.01,2013-04-23 05:11:00,
2013-04-23 01:16:00,40.6,24.9,30.31,WNW,287,0.0,0.0,53,0.00,,BKN065,0.00,VWS V13.01,2013-04-23 05:16:00,
2013-04-23 01:21:00,40.8,25.0,30.31,WSW,255,0.0,0.0,53,0.00,,BKN065,0.00,VWS V13.01,2013-04-23 05:21:00,
2013-04-23 01:26:00,41.0,25.6,30.31,WSW,255,0.0,0.0,54,0.00,,BKN065,0.00,VWS V13.01,2013-04-23 05:26:00,
2013-04-23 01:31:00,41.0,25.2,30.31,WSW,255,0.0,0.0,53,0.00,,BKN065,0.00,VWS V13.01,2013-04-23 05:31:00,
2013-04-23 01:36:00,41.0,25.2,30.31,WSW,255,0.0,0.0,53,0.00,,BKN055,0.00,VWS V13.01,2013-04-23 05:36:00,
2013-04-23 01:41:00,40.8,25.0,30.31,WSW,255,0.0,0.0,53,0.00,,BKN055,0.00,VWS V13.01,2013-04-23 05:41:00,
2013-04-23 01:46:00,40.6,24.9,30.31,WSW,255,0.0,0.0,53,0.00,,BKN055,0.00,VWS V13.01,2013-04-23 05:46:00,
2013-04-23 01:51:00,40.3,24.5,30.28,WSW,255,0.0,0.0,53,0.00,,BKN055,0.00,VWS V13.01,2013-04-23 05:51:00,
2013-04-23 01:56:00,39.7,24.0,30.28,West,279,3.4,4.5,53,0.00,,OVC065,0.00,VWS V13.01,2013-04-23 05:56:00,
2013-04-23 02:01:00,39.4,24.1,30.28,West,275,3.4,3.9,54,0.00,,OVC065,0.00,VWS V13.01,2013-04-23 06:01:00,
2013-04-23 02:06:00,39.2,24.4,30.28,West,275,0.0,5.0,55,0.00,,OVC065,0.00,VWS V13.01,2013-04-23 06:06:00,
2013-04-23 02:11:00,39.2,24.4,30.28,West,262,0.0,0.0,55,0.00,,OVC065,0.00,VWS V13.01,2013-04-23 06:11:00,
2013-04-23 02:16:00,39.2,24.8,30.28,West,264,3.9,4.5,56,0.00,,OVC046,0.00,VWS V13.01,2013-04-23 06:16:00,
2013-04-23 02:21:00,39.4,25.9,30.28,West,261,4.5,4.5,58,0.00,,OVC046,0.00,VWS V13.01,2013-04-23 06:21:00,
2013-04-23 02:26:00,39.4,25.9,30.28,WSW,253,3.4,4.5,58,0.00,,OVC046,0.00,VWS V13.01,2013-04-23 06:26:00,
2013-04-23 02:31:00,39.2,25.3,30.28,WSW,258,0.0,2.8,57,0.00,,OVC046,0.00,VWS V13.01,2013-04-23 06:31:00,
2013-04-23 02:36:00,39.2,25.7,30.28,West,278,0.0,0.0,58,0.00,,BKN055,0.00,VWS V13.01,2013-04-23 06:36:00,
2013-04-23 02:41:00,39.2,25.7,30.28,West,278,0.0,0.0,58,0.00,,BKN055,0.00,VWS V13.01,2013-04-23 06:41:00,
2013-04-23 02:46:00,39.4,25.9,30.28,West,280,0.0,0.0,58,0.00,,BKN055,0.00,VWS V13.01,2013-04-23 06:46:00,
2013-04-23 02:51:00,39.7,26.6,30.28,WNW,295,0.0,0.0,59,0.00,,BKN055,0.00,VWS V13.01,2013-04-23 06:51:00,
2013-04-23 02:56:00,40.1,26.9,30.28,North,0,0.0,3.4,59,0.00,,OVC060,0.00,VWS V13.01,2013-04-23 06:56:00,
2013-04-23 03:01:00,40.3,27.1,30.28,NW,316,0.0,0.0,59,0.00,,OVC060,0.00,VWS V13.01,2013-04-23 07:01:00,
2013-04-23 03:06:00,40.3,27.1,30.28,North,353,0.0,0.0,59,0.00,,OVC060,0.00,VWS V13.01,2013-04-23 07:06:00,
2013-04-23 03:11:00,40.3,27.1,30.28,North,8,0.0,0.0,59,0.00,,OVC060,0.00,VWS V13.01,2013-04-23 07:11:00,
2013-04-23 03:16:00,40.5,27.3,30.28,North,7,4.5,4.5,59,0.00,,OVC044,0.00,VWS V13.01,2013-04-23 07:16:00,
2013-04-23 03:21:00,40.3,27.1,30.28,North,357,3.4,3.9,59,0.00,,OVC044,0.00,VWS V13.01,2013-04-23 07:21:00,
2013-04-23 03:26:00,40.3,27.1,30.28,North,353,2.8,3.4,59,0.00,,OVC044,0.00,VWS V13.01,2013-04-23 07:26:00,
2013-04-23 03:31:00,40.3,27.1,30.28,WNW,290,0.0,0.0,59,0.00,,OVC044,0.00,VWS V13.01,2013-04-23 07:31:00,
2013-04-23 03:36:00,40.5,27.3,30.28,West,273,3.9,5.0,59,0.00,,OVC042,0.00,VWS V13.01,2013-04-23 07:36:00,
2013-04-23 03:41:00,40.5,27.3,30.28,WNW,284,3.9,4.5,59,0.00,,OVC042,0.00,VWS V13.01,2013-04-23 07:41:00,
2013-04-23 03:46:00,40.5,27.3,30.28,West,260,3.4,3.9,59,0.00,,OVC042,0.00,VWS V13.01,2013-04-23 07:46:00,
2013-04-23 03:51:00,40.6,27.5,30.28,North,3,2.8,3.4,59,0.00,,OVC042,0.00,VWS V13.01,2013-04-23 07:51:00,
2013-04-23 03:56:00,40.8,28.0,30.28,North,11,3.4,6.2,60,0.00,,OVC047,0.00,VWS V13.01,2013-04-23 07:56:00,
2013-04-23 04:01:00,41.2,28.0,30.28,North,1,3.4,4.5,59,0.00,,OVC047,0.00,VWS V13.01,2013-04-23 08:01:00,
2013-04-23 04:06:00,41.4,28.1,30.28,North,0,5.0,5.0,59,0.00,,OVC047,0.00,VWS V13.01,2013-04-23 08:06:00,
2013-04-23 04:11:00,41.5,28.3,30.28,North,353,3.4,5.0,59,0.00,,OVC047,0.00,VWS V13.01,2013-04-23 08:11:00,
2013-04-23 04:16:00,41.5,28.3,30.28,North,6,4.5,5.0,59,0.00,,OVC047,0.00,VWS V13.01,2013-04-23 08:16:00,
2013-04-23 04:21:00,41.5,28.3,30.28,North,357,4.5,4.5,59,0.00,,OVC047,0.00,VWS V13.01,2013-04-23 08:21:00,
2013-04-23 04:26:00,41.5,28.3,30.28,North,357,4.5,5.0,59,0.00,,OVC047,0.00,VWS V13.01,2013-04-23 08:26:00,
2013-04-23 04:31:00,41.5,28.3,30.28,North,0,4.5,4.5,59,0.00,,OVC047,0.00,VWS V13.01,2013-04-23 08:31:00,
2013-04-23 04:36:00,41.5,28.3,30.25,NNE,15,4.5,7.3,59,0.00,,OVC047,0.00,VWS V13.01,2013-04-23 08:36:00,
2013-04-23 04:42:00,41.7,28.5,30.25,North,8,3.4,4.5,59,0.00,,OVC047,0.00,VWS V13.01,2013-04-23 08:42:00,
2013-04-23 04:47:00,41.9,28.2,30.25,NE,56,4.5,5.0,58,0.00,,OVC047,0.00,VWS V13.01,2013-04-23 08:47:00,
2013-04-23 04:52:00,42.1,28.4,30.25,North,8,3.9,7.3,58,0.00,,OVC047,0.00,VWS V13.01,2013-04-23 08:52:00,
2013-04-23 04:57:00,42.3,27.7,30.25,North,7,4.5,6.7,56,0.00,,OVC043,0.00,VWS V13.01,2013-04-23 08:57:00,
2013-04-23 05:02:00,42.3,27.3,30.25,NE,48,3.4,4.5,55,0.00,,OVC043,0.00,VWS V13.01,2013-04-23 09:02:00,
2013-04-23 05:07:00,42.4,27.4,30.25,NNE,20,3.4,3.9,55,0.00,,OVC043,0.00,VWS V13.01,2013-04-23 09:07:00,
2013-04-23 05:12:00,42.4,27.0,30.25,North,357,3.4,5.0,54,0.00,,OVC043,0.00,VWS V13.01,2013-04-23 09:12:00,
2013-04-23 05:17:00,42.4,27.0,30.25,North,0,5.0,5.0,54,0.00,,OVC043,0.00,VWS V13.01,2013-04-23 09:17:00,
2013-04-23 05:22:00,42.3,26.8,30.25,North,357,3.9,6.7,54,0.00,,OVC043,0.00,VWS V13.01,2013-04-23 09:22:00,
2013-04-23 05:27:00,42.3,27.3,30.25,NNW,343,3.9,5.0,55,0.00,,OVC043,0.00,VWS V13.01,2013-04-23 09:27:00,
2013-04-23 05:32:00,42.3,27.3,30.25,NNE,16,5.0,5.0,55,0.00,,OVC043,0.00,VWS V13.01,2013-04-23 09:32:00,
2013-04-23 05:37:00,42.3,27.3,30.25,NNE,32,4.5,6.2,55,0.00,,OVC037,0.00,VWS V13.01,2013-04-23 09:37:00,
2013-04-23 05:42:00,42.3,26.8,30.25,NE,37,3.9,5.0,54,0.00,,OVC037,0.00,VWS V13.01,2013-04-23 09:42:00,
2013-04-23 05:47:00,42.3,26.4,30.25,ENE,61,4.5,4.5,53,0.00,,OVC037,0.00,VWS V13.01,2013-04-23 09:47:00,
2013-04-23 05:52:00,42.4,26.5,30.25,NE,37,5.0,5.0,53,0.00,,OVC037,0.00,VWS V13.01,2013-04-23 09:52:00,
2013-04-23 05:57:00,42.3,25.9,30.25,ENE,74,6.2,7.8,52,0.00,,OVC037,0.00,VWS V13.01,2013-04-23 09:57:00,
2013-04-23 06:02:00,42.3,26.4,30.25,North,8,5.0,5.0,53,0.00,,OVC037,0.00,VWS V13.01,2013-04-23 10:02:00,
2013-04-23 06:07:00,42.3,26.4,30.25,NNE,18,3.9,6.7,53,0.00,,OVC037,0.00,VWS V13.01,2013-04-23 10:07:00,
2013-04-23 06:12:00,42.3,26.4,30.25,NNE,22,4.5,6.2,53,0.00,,OVC037,0.00,VWS V13.01,2013-04-23 10:12:00,
2013-04-23 06:17:00,42.3,26.4,30.25,NNE,29,7.8,7.8,53,0.00,,OVC042,0.00,VWS V13.01,2013-04-23 10:17:00,
2013-04-23 06:22:00,42.3,26.4,30.25,North,8,3.4,6.7,53,0.00,,OVC042,0.00,VWS V13.01,2013-04-23 10:22:00,
2013-04-23 06:27:00,42.3,26.8,30.25,NE,34,4.5,6.7,54,0.00,,OVC042,0.00,VWS V13.01,2013-04-23 10:27:00,
2013-04-23 06:32:00,42.3,26.4,30.25,NNE,12,3.4,6.7,53,0.00,,OVC042,0.00,VWS V13.01,2013-04-23 10:32:00,
2013-04-23 06:37:00,42.1,26.2,30.25,NNE,18,3.9,6.2,53,0.00,,OVC060,0.00,VWS V13.01,2013-04-23 10:37:00,
2013-04-23 06:42:00,42.3,26.8,30.25,NNE,15,3.4,4.5,54,0.00,,OVC060,0.00,VWS V13.01,2013-04-23 10:42:00,
2013-04-23 06:47:00,42.3,26.4,30.25,NNE,17,3.9,3.9,53,0.00,,OVC060,0.00,VWS V13.01,2013-04-23 10:47:00,
2013-04-23 06:52:00,42.3,26.4,30.25,NE,40,3.4,4.5,53,0.00,,OVC060,0.00,VWS V13.01,2013-04-23 10:52:00,
2013-04-23 06:57:00,42.3,26.4,30.25,NNE,14,3.4,3.9,53,0.00,,OVC060,0.00,VWS V13.01,2013-04-23 10:57:00,
2013-04-23 07:02:00,42.1,26.2,30.25,NNE,19,4.5,4.5,53,0.00,,OVC060,0.00,VWS V13.01,2013-04-23 11:02:00,
2013-04-23 07:07:00,42.1,26.2,30.25,NNE,22,4.5,7.3,53,0.00,,OVC060,0.00,VWS V13.01,2013-04-23 11:07:00,
2013-04-23 07:12:00,42.1,26.2,30.25,NE,39,4.5,6.7,53,0.00,,OVC060,0.00,VWS V13.01,2013-04-23 11:12:00,
2013-04-23 07:17:00,42.3,26.4,30.25,North,357,6.2,6.7,53,0.00,,OVC060,0.00,VWS V13.01,2013-04-23 11:17:00,
2013-04-23 07:22:00,42.4,26.5,30.25,North,4,5.0,5.0,53,0.00,,OVC060,0.00,VWS V13.01,2013-04-23 11:22:00,
2013-04-23 07:27:00,42.8,26.4,30.25,NNE,29,3.4,6.7,52,0.00,,OVC060,0.00,VWS V13.01,2013-04-23 11:27:00,
2013-04-23 07:32:00,43.0,26.6,30.25,North,10,3.4,4.5,52,0.00,,OVC060,0.00,VWS V13.01,2013-04-23 11:32:00,
2013-04-23 07:37:00,43.0,26.1,30.25,NNE,16,3.4,6.2,51,0.00,,OVC060,0.00,VWS V13.01,2013-04-23 11:37:00,
2013-04-23 07:42:00,43.0,26.1,30.25,NE,42,3.4,5.0,51,0.00,,OVC060,0.00,VWS V13.01,2013-04-23 11:42:00,
2013-04-23 07:47:00,43.2,26.3,30.25,NNE,14,7.3,7.3,51,0.00,,OVC060,0.00,VWS V13.01,2013-04-23 11:47:00,
2013-04-23 07:52:00,43.3,26.4,30.25,NE,42,6.2,6.2,51,0.00,,OVC060,0.00,VWS V13.01,2013-04-23 11:52:00,
2013-04-23 07:57:00,43.5,26.6,30.25,NNE,21,5.0,8.9,51,0.00,,OVC060,0.00,VWS V13.01,2013-04-23 11:57:00,
2013-04-23 08:02:00,43.7,26.3,30.25,NNE,16,6.7,6.7,50,0.00,,OVC060,0.00,VWS V13.01,2013-04-23 12:02:00,
2013-04-23 08:07:00,44.1,26.6,30.25,NE,48,4.5,6.7,50,0.00,,OVC060,0.00,VWS V13.01,2013-04-23 12:07:00,
2013-04-23 08:12:00,44.2,26.8,30.25,NE,47,5.0,6.7,50,0.00,,OVC060,0.00,VWS V13.01,2013-04-23 12:12:00,
2013-04-23 08:17:00,44.8,26.8,30.25,North,353,4.5,4.5,49,0.00,,OVC050,0.00,VWS V13.01,2013-04-23 12:17:00,
2013-04-23 08:22:00,44.8,26.8,30.25,NNE,24,3.9,6.2,49,0.00,,OVC050,0.00,VWS V13.01,2013-04-23 12:22:00,
2013-04-23 08:27:00,45.0,27.0,30.25,NNE,28,4.5,5.0,49,0.00,,OVC050,0.00,VWS V13.01,2013-04-23 12:27:00,
2013-04-23 08:32:00,45.9,27.8,30.25,ENE,57,6.2,6.2,49,0.00,,OVC050,0.00,VWS V13.01,2013-04-23 12:32:00,
2013-04-23 08:37:00,47.1,28.5,30.25,ENE,63,3.4,4.5,48,0.00,,OVC040,0.00,VWS V13.01,2013-04-23 12:37:00,
2013-04-23 08:42:00,46.9,28.3,30.25,North,8,4.5,7.3,48,0.00,,OVC040,0.00,VWS V13.01,2013-04-23 12:42:00,
2013-04-23 08:47:00,46.9,27.8,30.25,NNE,14,5.0,6.7,47,0.00,,OVC040,0.00,VWS V13.01,2013-04-23 12:47:00,
2013-04-23 08:52:00,47.7,28.4,30.25,NE,36,6.2,6.7,47,0.00,,OVC040,0.00,VWS V13.01,2013-04-23 12:52:00,
2013-04-23 08:57:00,48.4,29.1,30.25,NE,55,2.8,5.0,47,0.00,,OVC050,0.00,VWS V13.01,2013-04-23 12:57:00,
2013-04-23 09:02:00,48.7,29.4,30.25,NNW,343,3.9,6.7,47,0.00,,OVC050,0.00,VWS V13.01,2013-04-23 13:02:00,
2013-04-23 09:07:00,49.6,30.2,30.22,NNE,18,2.8,3.4,47,0.00,,OVC050,0.00,VWS V13.01,2013-04-23 13:07:00,
2013-04-23 09:12:00,50.0,30.0,30.22,NNE,15,6.2,6.2,46,0.00,,OVC050,0.00,VWS V13.01,2013-04-23 13:12:00,
2013-04-23 09:17:00,50.0,30.0,30.22,ENE,66,6.2,6.2,46,0.00,,OVC050,0.00,VWS V13.01,2013-04-23 13:17:00,
2013-04-23 09:22:00,50.2,30.2,30.22,NNE,21,3.9,5.0,46,0.00,,OVC050,0.00,VWS V13.01,2013-04-23 13:22:00,
2013-04-23 09:27:00,50.9,30.9,30.22,NNE,18,0.0,5.0,46,0.00,,OVC050,0.00,VWS V13.01,2013-04-23 13:27:00,
2013-04-23 09:32:00,51.4,31.4,30.22,NE,56,6.7,6.7,46,0.00,,OVC050,0.00,VWS V13.01,2013-04-23 13:32:00,
2013-04-23 09:37:00,51.1,31.0,30.22,NNE,20,3.4,3.4,46,0.00,,BKN050,0.00,VWS V13.01,2013-04-23 13:37:00,
2013-04-23 09:42:00,51.6,31.5,30.22,NE,53,3.9,5.0,46,0.00,,BKN050,0.00,VWS V13.01,2013-04-23 13:42:00,
2013-04-23 09:47:00,52.2,32.0,30.22,North,357,7.8,8.4,46,0.00,,BKN050,0.00,VWS V13.01,2013-04-23 13:47:00,
2013-04-23 09:52:00,52.7,30.9,30.22,NNE,17,7.8,7.8,43,0.00,,BKN050,0.00,VWS V13.01,2013-04-23 13:52:00,
2013-04-23 09:57:00,52.7,30.9,30.22,North,357,4.5,6.2,43,0.00,,OVC050,0.00,VWS V13.01,2013-04-23 13:57:00,
2013-04-23 10:02:00,52.9,31.0,30.22,North,4,3.9,5.0,43,0.00,,OVC050,0.00,VWS V13.01,2013-04-23 14:02:00,
2013-04-23 10:07:00,53.1,31.2,30.22,North,3,4.5,4.5,43,0.00,,OVC050,0.00,VWS V13.01,2013-04-23 14:07:00,
2013-04-23 10:12:00,53.6,31.7,30.22,NNW,346,3.9,3.9,43,0.00,,OVC050,0.00,VWS V13.01,2013-04-23 14:12:00,
2013-04-23 10:17:00,54.1,32.2,30.22,West,280,3.4,4.5,43,0.00,,SCT050,0.00,VWS V13.01,2013-04-23 14:17:00,
2013-04-23 10:22:00,54.5,32.5,30.22,NE,47,6.7,7.8,43,0.00,,SCT050,0.00,VWS V13.01,2013-04-23 14:22:00,
2013-04-23 10:27:00,53.8,31.8,30.22,NNE,14,2.8,5.0,43,0.00,,SCT050,0.00,VWS V13.01,2013-04-23 14:27:00,
2013-04-23 10:32:00,53.6,31.7,30.22,NNE,17,0.0,4.5,43,0.00,,SCT050,0.00,VWS V13.01,2013-04-23 14:32:00,
2013-04-23 10:37:00,53.8,31.8,30.22,NNE,22,4.5,6.2,43,0.00,,CLR,0.00,VWS V13.01,2013-04-23 14:37:00,
2013-04-23 10:42:00,54.1,32.2,30.22,NW,305,0.0,5.0,43,0.00,,CLR,0.00,VWS V13.01,2013-04-23 14:42:00,
2013-04-23 10:47:00,55.2,33.1,30.22,NNW,345,5.0,5.0,43,0.00,,CLR,0.00,VWS V13.01,2013-04-23 14:47:00,
2013-04-23 10:52:00,55.2,33.1,30.22,NE,42,0.0,0.0,43,0.00,,CLR,0.00,VWS V13.01,2013-04-23 14:52:00,
2013-04-23 10:57:00,55.8,33.0,30.22,NW,317,4.5,5.0,42,0.00,,CLR,0.00,VWS V13.01,2013-04-23 14:57:00,
2013-04-23 11:02:00,56.8,34.0,30.22,SSE,147,6.2,6.2,42,0.00,,CLR,0.00,VWS V13.01,2013-04-23 15:02:00,
2013-04-23 11:07:00,57.2,34.3,30.19,ENE,63,2.8,6.2,42,0.00,,CLR,0.00,VWS V13.01,2013-04-23 15:07:00,
2013-04-23 11:12:00,57.7,34.8,30.19,SW,222,0.0,3.4,42,0.00,,CLR,0.00,VWS V13.01,2013-04-23 15:12:00,
2013-04-23 11:17:00,57.7,33.0,30.19,WNW,300,3.4,4.5,39,0.00,,CLR,0.00,VWS V13.01,2013-04-23 15:17:00,
2013-04-23 11:22:00,57.2,32.5,30.19,East,79,3.4,4.5,39,0.00,,CLR,0.00,VWS V13.01,2013-04-23 15:22:00,
2013-04-23 11:27:00,56.5,32.5,30.19,NE,49,6.2,7.3,40,0.00,,CLR,0.00,VWS V13.01,2013-04-23 15:27:00,
2013-04-23 11:32:00,56.5,32.5,30.19,NNE,23,5.0,6.2,40,0.00,,CLR,0.00,VWS V13.01,2013-04-23 15:32:00,
2013-04-23 11:37:00,56.7,32.6,30.19,ENE,68,2.8,3.4,40,0.00,,CLR,0.00,VWS V13.01,2013-04-23 15:37:00,
2013-04-23 11:42:00,57.2,34.3,30.19,WSW,254,3.9,5.0,42,0.00,,CLR,0.00,VWS V13.01,2013-04-23 15:42:00,
2013-04-23 11:47:00,58.1,35.2,30.19,SSW,196,3.4,3.9,42,0.00,,CLR,0.00,VWS V13.01,2013-04-23 15:47:00,
2013-04-23 11:52:00,58.6,35.6,30.19,SE,145,0.0,5.0,42,0.00,,CLR,0.00,VWS V13.01,2013-04-23 15:52:00,
2013-04-23 11:57:00,59.4,36.3,30.19,SE,131,7.3,7.3,42,0.00,,CLR,0.00,VWS V13.01,2013-04-23 15:57:00,
2013-04-23 12:02:00,59.4,36.3,30.19,ESE,113,3.9,5.0,42,0.00,,CLR,0.00,VWS V13.01,2013-04-23 16:02:00,
2013-04-23 12:07:00,59.4,36.3,30.19,ESE,111,3.9,3.9,42,0.00,,CLR,0.00,VWS V13.01,2013-04-23 16:07:00,
2013-04-23 12:12:00,59.7,36.6,30.19,South,175,4.5,4.5,42,0.00,,CLR,0.00,VWS V13.01,2013-04-23 16:12:00,
2013-04-23 12:17:00,59.9,36.8,30.19,SW,215,3.4,5.0,42,0.00,,SCT044,0.00,VWS V13.01,2013-04-23 16:17:00,
2013-04-23 12:22:00,59.9,36.8,30.19,WSW,256,4.5,4.5,42,0.00,,SCT044,0.00,VWS V13.01,2013-04-23 16:22:00,
2013-04-23 12:27:00,60.1,36.9,30.19,South,185,3.4,6.7,42,0.00,,SCT044,0.00,VWS V13.01,2013-04-23 16:27:00,
2013-04-23 12:32:00,60.4,37.3,30.19,South,183,3.9,5.6,42,0.00,,SCT044,0.00,VWS V13.01,2013-04-23 16:32:00,
2013-04-23 12:37:00,61.0,37.1,30.19,SSE,159,3.4,3.9,41,0.00,,SCT044,0.00,VWS V13.01,2013-04-23 16:37:00,
2013-04-23 12:42:00,61.3,37.5,30.19,SSW,192,0.0,0.0,41,0.00,,SCT044,0.00,VWS V13.01,2013-04-23 16:42:00,
2013-04-23 12:47:00,61.7,37.8,30.19,SW,231,4.5,10.1,41,0.00,,SCT044,0.00,VWS V13.01,2013-04-23 16:47:00,
2013-04-23 12:52:00,61.7,37.8,30.19,SSW,202,4.5,4.5,41,0.00,,SCT044,0.00,VWS V13.01,2013-04-23 16:52:00,
2013-04-23 12:57:00,62.1,38.1,30.19,WSW,251,3.4,4.5,41,0.00,,CLR,0.00,VWS V13.01,2013-04-23 16:57:00,
2013-04-23 13:02:00,62.2,38.3,30.19,SSE,160,4.5,5.0,41,0.00,,CLR,0.00,VWS V13.01,2013-04-23 17:02:00,
2013-04-23 13:07:00,62.2,38.3,30.16,SSE,162,4.5,4.5,41,0.00,,CLR,0.00,VWS V13.01,2013-04-23 17:07:00,
2013-04-23 13:12:00,62.8,38.8,30.16,SE,132,7.8,7.8,41,0.00,,CLR,0.00,VWS V13.01,2013-04-23 17:12:00,
2013-04-23 13:17:00,62.6,38.6,30.16,SSW,211,3.4,6.2,41,0.00,,CLR,0.00,VWS V13.01,2013-04-23 17:17:00,
2013-04-23 13:22:00,62.6,38.6,30.16,South,173,6.7,7.3,41,0.00,,CLR,0.00,VWS V13.01,2013-04-23 17:22:00,
2013-04-23 13:27:00,63.0,38.9,30.16,SSW,213,3.9,7.3,41,0.00,,CLR,0.00,VWS V13.01,2013-04-23 17:27:00,
2013-04-23 13:32:00,63.3,39.2,30.16,SE,136,6.7,9.5,41,0.00,,CLR,0.00,VWS V13.01,2013-04-23 17:32:00,
2013-04-23 13:37:00,63.5,39.4,30.14,SSE,151,10.9,10.9,41,0.00,,CLR,0.00,VWS V13.01,2013-04-23 17:37:00,
2013-04-23 13:42:00,63.5,39.4,30.14,SSE,166,5.0,7.8,41,0.00,,CLR,0.00,VWS V13.01,2013-04-23 17:42:00,
2013-04-23 13:47:00,63.7,39.6,30.14,SSE,167,7.3,10.3,41,0.00,,CLR,0.00,VWS V13.01,2013-04-23 17:47:00,
2013-04-23 13:52:00,63.5,37.5,30.14,ESE,111,6.7,10.9,38,0.00,,CLR,0.00,VWS V13.01,2013-04-23 17:52:00,
2013-04-23 13:57:00,63.5,39.4,30.14,SW,236,6.2,6.7,41,0.00,,CLR,0.00,VWS V13.01,2013-04-23 17:57:00,
2013-04-23 14:02:00,63.7,39.6,30.14,SE,136,3.9,6.2,41,0.00,,CLR,0.00,VWS V13.01,2013-04-23 18:02:00,
2013-04-23 14:07:00,64.0,39.9,30.14,West,260,2.8,5.0,41,0.00,,CLR,0.00,VWS V13.01,2013-04-23 18:07:00,
2013-04-23 14:12:00,64.0,37.9,30.14,SSW,211,3.4,3.4,38,0.00,,CLR,0.00,VWS V13.01,2013-04-23 18:12:00,
2013-04-23 14:17:00,64.0,37.9,30.14,ENE,66,0.0,4.5,38,0.00,,CLR,0.00,VWS V13.01,2013-04-23 18:17:00,
2013-04-23 14:22:00,64.2,38.1,30.14,SE,125,3.4,7.8,38,0.00,,CLR,0.00,VWS V13.01,2013-04-23 18:22:00,
2013-04-23 14:27:00,64.2,38.1,30.14,SSE,167,3.4,6.7,38,0.00,,CLR,0.00,VWS V13.01,2013-04-23 18:27:00,
2013-04-23 14:32:00,64.6,38.4,30.14,South,187,3.4,5.0,38,0.00,,CLR,0.00,VWS V13.01,2013-04-23 18:32:00,
2013-04-23 14:37:00,64.9,38.8,30.14,NE,34,3.4,6.2,38,0.00,,CLR,0.00,VWS V13.01,2013-04-23 18:37:00,
2013-04-23 14:42:00,64.8,38.6,30.14,WSW,251,3.4,3.4,38,0.00,,CLR,0.00,VWS V13.01,2013-04-23 18:42:00,
2013-04-23 14:47:00,64.9,38.8,30.14,SW,230,0.0,5.0,38,0.00,,CLR,0.00,VWS V13.01,2013-04-23 18:47:00,
2013-04-23 14:52:00,65.1,38.9,30.14,SSE,156,6.2,6.2,38,0.00,,CLR,0.00,VWS V13.01,2013-04-23 18:52:00,
2013-04-23 14:57:00,65.5,39.2,30.14,SE,138,6.7,6.7,38,0.00,,CLR,0.00,VWS V13.01,2013-04-23 18:57:00,
2013-04-23 15:02:00,65.7,39.4,30.14,ESE,102,3.4,3.9,38,0.00,,CLR,0.00,VWS V13.01,2013-04-23 19:02:00,
2013-04-23 15:07:00,65.8,39.5,30.11,SE,124,4.5,7.3,38,0.00,,CLR,0.00,VWS V13.01,2013-04-23 19:07:00,
2013-04-23 15:12:00,66.0,39.7,30.11,SW,223,4.5,4.5,38,0.00,,CLR,0.00,VWS V13.01,2013-04-23 19:12:00,
2013-04-23 15:17:00,66.4,39.3,30.11,ESE,105,4.5,7.3,37,0.00,,CLR,0.00,VWS V13.01,2013-04-23 19:17:00,
2013-04-23 15:22:00,66.6,39.5,30.11,East,85,4.5,4.5,37,0.00,,CLR,0.00,VWS V13.01,2013-04-23 19:22:00,
2013-04-23 15:27:00,66.7,39.7,30.11,SSE,155,3.4,3.4,37,0.00,,CLR,0.00,VWS V13.01,2013-04-23 19:27:00,
2013-04-23 15:32:00,66.7,39.7,30.11,East,91,6.7,10.1,37,0.00,,CLR,0.00,VWS V13.01,2013-04-23 19:32:00,
2013-04-23 15:37:00,66.6,39.5,30.11,SSE,168,2.8,6.2,37,0.00,,CLR,0.00,VWS V13.01,2013-04-23 19:37:00,
2013-04-23 15:42:00,66.6,39.5,30.11,East,86,6.2,6.7,37,0.00,,CLR,0.00,VWS V13.01,2013-04-23 19:42:00,
2013-04-23 15:47:00,66.9,39.8,30.11,SSE,157,3.9,7.3,37,0.00,,CLR,0.00,VWS V13.01,2013-04-23 19:47:00,
2013-04-23 15:52:00,66.9,39.8,30.08,SSW,195,0.0,3.9,37,0.00,,CLR,0.00,VWS V13.01,2013-04-23 19:52:00,
2013-04-23 15:57:00,67.1,40.0,30.08,East,82,6.2,7.8,37,0.00,,CLR,0.00,VWS V13.01,2013-04-23 19:57:00,
2013-04-23 16:02:00,67.3,40.1,30.08,SSE,167,6.7,6.7,37,0.00,,CLR,0.00,VWS V13.01,2013-04-23 20:02:00,
2013-04-23 16:07:00,67.3,40.1,30.08,West,259,6.7,6.7,37,0.00,,CLR,0.00,VWS V13.01,2013-04-23 20:07:00,
2013-04-23 16:12:00,67.3,40.1,30.08,SE,128,3.9,4.5,37,0.00,,CLR,0.00,VWS V13.01,2013-04-23 20:12:00,
2013-04-23 16:17:00,67.3,40.1,30.08,SW,229,2.8,3.4,37,0.00,,CLR,0.00,VWS V13.01,2013-04-23 20:17:00,
2013-04-23 16:22:00,67.3,40.1,30.08,SE,138,4.5,5.0,37,0.00,,CLR,0.00,VWS V13.01,2013-04-23 20:22:00,
2013-04-23 16:27:00,67.3,40.1,30.08,South,177,4.5,7.3,37,0.00,,CLR,0.00,VWS V13.01,2013-04-23 20:27:00,
2013-04-23 16:32:00,67.1,40.0,30.08,WSW,239,2.8,6.7,37,0.00,,CLR,0.00,VWS V13.01,2013-04-23 20:32:00,
2013-04-23 16:37:00,67.1,40.0,30.08,SSW,197,8.4,9.5,37,0.00,,CLR,0.00,VWS V13.01,2013-04-23 20:37:00,
2013-04-23 16:42:00,66.9,39.8,30.08,SE,144,3.4,4.5,37,0.00,,CLR,0.00,VWS V13.01,2013-04-23 20:42:00,
2013-04-23 16:47:00,66.7,39.7,30.08,SSE,166,0.0,3.4,37,0.00,,CLR,0.00,VWS V13.01,2013-04-23 20:47:00,
2013-04-23 16:52:00,66.7,39.7,30.08,WSW,240,3.4,9.5,37,0.00,,CLR,0.00,VWS V13.01,2013-04-23 20:52:00,
2013-04-23 16:57:00,66.6,39.5,30.08,SW,234,3.9,6.7,37,0.00,,CLR,0.00,VWS V13.01,2013-04-23 20:57:00,
2013-04-23 17:02:00,66.2,39.2,30.08,SW,228,6.2,7.8,37,0.00,,CLR,0.00,VWS V13.01,2013-04-23 21:02:00,
2013-04-23 17:07:00,66.0,39.7,30.08,SW,235,4.5,9.5,38,0.00,,CLR,0.00,VWS V13.01,2013-04-23 21:07:00,
2013-04-23 17:12:00,66.0,39.7,30.08,SE,124,3.9,6.2,38,0.00,,CLR,0.00,VWS V13.01,2013-04-23 21:12:00,
2013-04-23 17:17:00,65.8,39.5,30.08,SE,141,4.5,7.8,38,0.00,,CLR,0.00,VWS V13.01,2013-04-23 21:17:00,
2013-04-23 17:22:00,65.7,39.4,30.08,SW,214,4.5,5.0,38,0.00,,CLR,0.00,VWS V13.01,2013-04-23 21:22:00,
2013-04-23 17:27:00,65.5,39.2,30.08,South,173,6.7,6.7,38,0.00,,CLR,0.00,VWS V13.01,2013-04-23 21:27:00,
2013-04-23 17:32:00,65.5,39.2,30.08,ESE,122,3.4,3.4,38,0.00,,CLR,0.00,VWS V13.01,2013-04-23 21:32:00,
2013-04-23 17:37:00,65.5,39.2,30.08,SE,134,7.8,7.8,38,0.00,,CLR,0.00,VWS V13.01,2013-04-23 21:37:00,
2013-04-23 17:42:00,65.5,39.2,30.08,SE,125,3.9,4.5,38,0.00,,CLR,0.00,VWS V13.01,2013-04-23 21:42:00,
2013-04-23 17:47:00,65.3,39.1,30.08,SSE,157,4.5,5.0,38,0.00,,CLR,0.00,VWS V13.01,2013-04-23 21:47:00,
2013-04-23 17:52:00,65.1,38.9,30.08,SSE,160,0.0,5.0,38,0.00,,CLR,0.00,VWS V13.01,2013-04-23 21:52:00,
2013-04-23 17:57:00,65.1,38.9,30.08,SE,124,6.2,7.8,38,0.00,,CLR,0.00,VWS V13.01,2013-04-23 21:57:00,
2013-04-23 18:02:00,64.8,38.6,30.08,SE,143,6.7,6.7,38,0.00,,CLR,0.00,VWS V13.01,2013-04-23 22:02:00,
2013-04-23 18:07:00,64.6,38.4,30.08,South,172,6.7,8.4,38,0.00,,CLR,0.00,VWS V13.01,2013-04-23 22:07:00,
2013-04-23 18:12:00,64.2,38.1,30.08,SSE,166,8.4,8.9,38,0.00,,CLR,0.00,VWS V13.01,2013-04-23 22:12:00,
2013-04-23 18:17:00,64.0,37.9,30.08,South,189,4.5,10.1,38,0.00,,CLR,0.00,VWS V13.01,2013-04-23 22:17:00,
2013-04-23 18:22:00,64.0,37.9,30.05,West,272,4.5,6.2,38,0.00,,CLR,0.00,VWS V13.01,2013-04-23 22:22:00,
2013-04-23 18:27:00,64.0,37.9,30.05,SE,145,3.4,5.0,38,0.00,,CLR,0.00,VWS V13.01,2013-04-23 22:27:00,
2013-04-23 18:32:00,63.9,37.8,30.05,SSE,148,4.5,5.0,38,0.00,,CLR,0.00,VWS V13.01,2013-04-23 22:32:00,
2013-04-23 18:37:00,63.9,37.8,30.05,SSE,166,9.5,9.5,38,0.00,,CLR,0.00,VWS V13.01,2013-04-23 22:37:00,
2013-04-23 18:42:00,63.5,37.5,30.05,South,187,4.5,7.3,38,0.00,,CLR,0.00,VWS V13.01,2013-04-23 22:42:00,
2013-04-23 18:47:00,63.1,37.1,30.05,South,174,3.4,7.8,38,0.00,,CLR,0.00,VWS V13.01,2013-04-23 22:47:00,
2013-04-23 18:52:00,63.1,37.1,30.08,SE,133,3.4,6.2,38,0.00,,CLR,0.00,VWS V13.01,2013-04-23 22:52:00,
2013-04-23 18:57:00,63.0,37.0,30.08,SW,215,3.9,6.2,38,0.00,,CLR,0.00,VWS V13.01,2013-04-23 22:57:00,
2013-04-23 19:02:00,63.0,37.0,30.08,SE,137,3.9,9.5,38,0.00,,CLR,0.00,VWS V13.01,2013-04-23 23:02:00,
2013-04-23 19:07:00,62.6,36.7,30.08,SE,136,5.6,5.6,38,0.00,,CLR,0.00,VWS V13.01,2013-04-23 23:07:00,
2013-04-23 19:12:00,62.4,37.2,30.08,South,178,3.4,3.9,39,0.00,,CLR,0.00,VWS V13.01,2013-04-23 23:12:00,
2013-04-23 19:17:00,62.2,37.0,30.08,SSW,207,5.0,6.7,39,0.00,,CLR,0.00,VWS V13.01,2013-04-23 23:17:00,
2013-04-23 19:22:00,61.9,36.7,30.08,South,170,5.0,7.3,39,0.00,,CLR,0.00,VWS V13.01,2013-04-23 23:22:00,
2013-04-23 19:27:00,61.5,36.3,30.08,SSW,197,0.0,4.5,39,0.00,,CLR,0.00,VWS V13.01,2013-04-23 23:27:00,
2013-04-23 19:32:00,61.3,36.2,30.08,SSE,158,0.0,3.9,39,0.00,,CLR,0.00,VWS V13.01,2013-04-23 23:32:00,
2013-04-23 19:37:00,61.0,35.9,30.08,SE,133,2.8,5.0,39,0.00,,CLR,0.00,VWS V13.01,2013-04-23 23:37:00,
2013-04-23 19:42:00,60.6,35.5,30.08,South,174,3.4,4.5,39,0.00,,CLR,0.00,VWS V13.01,2013-04-23 23:42:00,
2013-04-23 19:47:00,60.3,35.2,30.08,SSE,149,0.0,3.4,39,0.00,,CLR,0.00,VWS V13.01,2013-04-23 23:47:00,
2013-04-23 19:52:00,59.9,34.9,30.08,SE,140,2.8,2.8,39,0.00,,CLR,0.00,VWS V13.01,2013-04-23 23:52:00,
2013-04-23 19:57:00,59.5,34.6,30.08,SE,140,0.0,3.4,39,0.00,,CLR,0.00,VWS V13.01,2013-04-23 23:57:00,
2013-04-23 20:02:00,59.2,34.3,30.08,SE,140,0.0,0.0,39,0.00,,CLR,0.00,VWS V13.01,2013-04-24 00:02:00,
2013-04-23 20:07:00,58.8,33.9,30.08,SE,143,0.0,0.0,39,0.00,,CLR,0.00,VWS V13.01,2013-04-24 00:07:00,
2013-04-23 20:13:00,58.5,33.6,30.08,SE,143,0.0,0.0,39,0.00,,CLR,0.00,VWS V13.01,2013-04-24 00:13:00,
2013-04-23 20:18:00,57.9,33.1,30.08,SE,143,0.0,0.0,39,0.00,,CLR,0.00,VWS V13.01,2013-04-24 00:18:00,
2013-04-23 20:23:00,57.4,32.7,30.08,SE,143,0.0,0.0,39,0.00,,CLR,0.00,VWS V13.01,2013-04-24 00:23:00,
2013-04-23 20:28:00,56.8,32.8,30.08,SE,143,0.0,0.0,40,0.00,,CLR,0.00,VWS V13.01,2013-04-24 00:28:00,
2013-04-23 20:33:00,56.7,32.6,30.08,SE,143,0.0,0.0,40,0.00,,CLR,0.00,VWS V13.01,2013-04-24 00:33:00,
2013-04-23 20:38:00,56.1,33.4,30.08,SE,143,0.0,0.0,42,0.00,,CLR,0.00,VWS V13.01,2013-04-24 00:38:00,
2013-04-23 20:43:00,55.6,32.9,30.08,SE,143,0.0,0.0,42,0.00,,CLR,0.00,VWS V13.01,2013-04-24 00:43:00,
2013-04-23 20:48:00,55.0,33.0,30.08,SE,143,0.0,0.0,43,0.00,,CLR,0.00,VWS V13.01,2013-04-24 00:48:00,
2013-04-23 20:53:00,54.5,33.6,30.08,SE,143,0.0,0.0,45,0.00,,CLR,0.00,VWS V13.01,2013-04-24 00:53:00,
2013-04-23 20:58:00,54.0,33.1,30.08,SE,143,0.0,0.0,45,0.00,,CLR,0.00,VWS V13.01,2013-04-24 00:58:00,
2013-04-23 21:03:00,53.6,33.3,30.08,SE,143,0.0,0.0,46,0.00,,CLR,0.00,VWS V13.01,2013-04-24 01:03:00,
2013-04-23 21:08:00,53.2,33.0,30.08,SE,143,0.0,0.0,46,0.00,,CLR,0.00,VWS V13.01,2013-04-24 01:08:00,
2013-04-23 21:13:00,52.7,32.5,30.08,SE,143,0.0,0.0,46,0.00,,CLR,0.00,VWS V13.01,2013-04-24 01:13:00,
2013-04-23 21:18:00,52.2,32.6,30.08,SE,143,0.0,0.0,47,0.00,,CLR,0.00,VWS V13.01,2013-04-24 01:18:00,
2013-04-23 21:23:00,51.8,32.2,30.11,SE,143,0.0,0.0,47,0.00,,CLR,0.00,VWS V13.01,2013-04-24 01:23:00,
2013-04-23 21:28:00,51.3,31.7,30.11,SE,143,0.0,0.0,47,0.00,,CLR,0.00,VWS V13.01,2013-04-24 01:28:00,
2013-04-23 21:33:00,50.9,31.4,30.11,SE,143,0.0,0.0,47,0.00,,CLR,0.00,VWS V13.01,2013-04-24 01:33:00,
2013-04-23 21:38:00,50.5,31.1,30.11,SE,143,0.0,0.0,47,0.00,,CLR,0.00,VWS V13.01,2013-04-24 01:38:00,
2013-04-23 21:43:00,50.4,30.9,30.11,SE,143,0.0,0.0,47,0.00,,CLR,0.00,VWS V13.01,2013-04-24 01:43:00,
2013-04-23 21:48:00,50.2,31.3,30.11,SE,143,0.0,0.0,48,0.00,,CLR,0.00,VWS V13.01,2013-04-24 01:48:00,
2013-04-23 21:53:00,49.8,30.9,30.11,SE,143,0.0,0.0,48,0.00,,CLR,0.00,VWS V13.01,2013-04-24 01:53:00,
2013-04-23 21:58:00,49.3,30.4,30.11,SE,143,0.0,0.0,48,0.00,,CLR,0.00,VWS V13.01,2013-04-24 01:58:00,
2013-04-23 22:03:00,48.9,30.6,30.11,SE,143,0.0,0.0,49,0.00,,CLR,0.00,VWS V13.01,2013-04-24 02:03:00,
2013-04-23 22:08:00,48.7,30.5,30.11,SE,143,0.0,0.0,49,0.00,,CLR,0.00,VWS V13.01,2013-04-24 02:08:00,
2013-04-23 22:13:00,48.4,30.1,30.11,SE,143,0.0,0.0,49,0.00,,CLR,0.00,VWS V13.01,2013-04-24 02:13:00,
2013-04-23 22:18:00,48.2,30.0,30.11,SE,143,0.0,0.0,49,0.00,,CLR,0.00,VWS V13.01,2013-04-24 02:18:00,
2013-04-23 22:24:00,47.8,30.1,30.08,SE,143,0.0,0.0,50,0.00,,CLR,0.00,VWS V13.01,2013-04-24 02:24:00,
2013-04-23 22:29:00,47.7,30.4,30.08,SE,143,0.0,0.0,51,0.00,,CLR,0.00,VWS V13.01,2013-04-24 02:29:00,
2013-04-23 22:34:00,47.7,30.4,30.08,SE,143,0.0,0.0,51,0.00,,CLR,0.00,VWS V13.01,2013-04-24 02:34:00,
2013-04-23 22:39:00,47.5,31.2,30.08,SE,143,0.0,0.0,53,0.00,,CLR,0.00,VWS V13.01,2013-04-24 02:39:00,
2013-04-23 22:44:00,47.3,31.0,30.08,SE,143,0.0,0.0,53,0.00,,CLR,0.00,VWS V13.01,2013-04-24 02:44:00,
2013-04-23 22:49:00,47.1,31.4,30.08,SE,143,0.0,0.0,54,0.00,,CLR,0.00,VWS V13.01,2013-04-24 02:49:00,
2013-04-23 22:54:00,46.9,31.2,30.08,SE,143,0.0,0.0,54,0.00,,CLR,0.00,VWS V13.01,2013-04-24 02:54:00,
2013-04-23 22:59:00,46.8,31.5,30.08,SE,143,0.0,0.0,55,0.00,,CLR,0.00,VWS V13.01,2013-04-24 02:59:00,
2013-04-23 23:05:00,46.8,31.5,30.08,SE,143,0.0,0.0,55,0.00,,CLR,0.00,VWS V13.01,2013-04-24 03:05:00,
2013-04-23 23:10:00,46.6,31.7,30.08,SE,143,0.0,0.0,56,0.00,,CLR,0.00,VWS V13.01,2013-04-24 03:10:00,
2013-04-23 23:15:00,46.2,31.8,30.08,SE,143,0.0,0.0,57,0.00,,CLR,0.00,VWS V13.01,2013-04-24 03:15:00,
2013-04-23 23:20:00,46.0,31.7,30.08,SE,143,0.0,0.0,57,0.00,,CLR,0.00,VWS V13.01,2013-04-24 03:20:00,
2013-04-23 23:25:00,45.7,31.3,30.08,SE,143,0.0,0.0,57,0.00,,CLR,0.00,VWS V13.01,2013-04-24 03:25:00,
2013-04-23 23:30:00,45.3,31.0,30.08,SE,143,0.0,0.0,57,0.00,,CLR,0.00,VWS V13.01,2013-04-24 03:30:00,
2013-04-23 23:35:00,45.3,31.4,30.08,SE,143,0.0,0.0,58,0.00,,CLR,0.00,VWS V13.01,2013-04-24 03:35:00,
2013-04-23 23:40:00,45.1,31.3,30.08,SE,143,0.0,0.0,58,0.00,,CLR,0.00,VWS V13.01,2013-04-24 03:40:00,
2013-04-23 23:45:00,45.1,31.3,30.08,SE,143,0.0,0.0,58,0.00,,CLR,0.00,VWS V13.01,2013-04-24 03:45:00,
2013-04-23 23:50:00,45.0,31.1,30.08,SE,143,0.0,0.0,58,0.00,,CLR,0.00,VWS V13.01,2013-04-24 03:50:00,
2013-04-23 23:55:00,45.1,31.3,30.08,SE,143,0.0,0.0,58,0.00,,CLR,0.00,VWS V13.01,2013-04-24 03:55:00,